createdAt,value
2023-02-24T00:01:28.312Z,21.38
2023-02-24T00:03:59.337Z,19.63
2023-02-24T00:06:35.952Z,22.77
2023-02-24T00:09:09.821Z,26.65
2023-02-24T00:11:38.775Z,26.20
2023-02-24T00:14:07.441Z,22.77
2023-02-24T00:16:34.988Z,23.98
2023-02-24T00:19:01.949Z,26.23
2023-02-24T00:21:28.697Z,22.33
2023-02-24T00:23:59.202Z,28.30
2023-02-24T00:26:27.084Z,26.73
2023-02-24T00:28:53.650Z,25.20
2023-02-24T00:31:24.237Z,27.75
2023-02-24T00:33:51.378Z,21.60
2023-02-24T00:36:24.648Z,19.73
2023-02-24T00:38:57.249Z,22.15
2023-02-24T00:43:58.752Z,18.08
2023-02-24T00:46:26.840Z,16.20
2023-02-24T00:48:55.060Z,18.35
2023-02-24T00:51:24.492Z,16.27
2023-02-24T00:53:59.101Z,16.33
2023-02-24T00:56:27.961Z,17.35
2023-02-24T00:58:56.294Z,19.40
2023-02-24T01:01:25.780Z,18.00
2023-02-24T01:03:55.703Z,21.58
2023-02-24T01:06:24.774Z,18.38
2023-02-24T01:08:53.844Z,16.80
2023-02-24T01:11:43.674Z,21.23
2023-02-24T01:14:14.701Z,16.95
2023-02-24T01:16:42.419Z,19.05
2023-02-24T01:19:09.222Z,21.33
2023-02-24T01:21:35.858Z,19.80
2023-02-24T01:24:02.757Z,20.08
2023-02-24T01:26:30.878Z,20.35
2023-02-24T01:28:57.582Z,22.45
2023-02-24T01:31:25.177Z,15.32
2023-02-24T01:33:52.562Z,19.25
2023-02-24T01:36:22.319Z,17.65
2023-02-24T01:38:49.419Z,14.02
2023-02-24T01:41:22.595Z,14.18
2023-02-24T01:44:01.798Z,13.13
2023-02-24T01:46:31.048Z,14.23
2023-02-24T01:49:02.766Z,10.45
2023-02-24T01:51:34.520Z,8.98
2023-02-24T01:54:03.028Z,7.70
2023-02-24T01:56:32.233Z,10.57
2023-02-24T01:59:00.477Z,13.00
2023-02-24T02:01:28.923Z,12.57
2023-02-24T02:04:03.434Z,11.68
2023-02-24T02:06:31.022Z,12.70
2023-02-24T02:08:57.870Z,12.18
2023-02-24T02:11:24.506Z,12.43
2023-02-24T02:13:52.935Z,15.40
2023-02-24T02:16:38.247Z,18.33
2023-02-24T02:19:26.641Z,14.60
2023-02-24T02:22:23.407Z,14.63
2023-02-24T02:24:54.563Z,17.10
2023-02-24T02:27:24.125Z,16.05
2023-02-24T02:30:13.529Z,12.05
2023-02-24T02:32:52.066Z,12.02
2023-02-24T02:35:26.320Z,15.73
2023-02-24T02:37:56.276Z,14.18
2023-02-24T02:40:52.459Z,15.45
2023-02-24T02:43:45.083Z,13.60
2023-02-24T02:46:34.537Z,11.73
2023-02-24T02:49:32.934Z,14.63
2023-02-24T02:52:05.780Z,17.35
2023-02-24T02:54:45.450Z,16.63
2023-02-24T02:57:14.587Z,15.52
2023-02-24T02:59:49.286Z,12.52
2023-02-24T03:02:19.729Z,14.75
2023-02-24T03:04:52.495Z,13.13
2023-02-24T03:07:22.671Z,15.27
2023-02-24T03:09:55.987Z,14.90
2023-02-24T03:12:24.836Z,12.02
2023-02-24T03:15:00.271Z,15.88
2023-02-24T03:17:30.668Z,16.90
2023-02-24T03:20:12.622Z,13.13
2023-02-24T03:22:52.131Z,14.52
2023-02-24T03:25:32.060Z,15.30
2023-02-24T03:28:05.914Z,18.42
2023-02-24T03:30:43.910Z,11.50
2023-02-24T03:33:41.738Z,12.85
2023-02-24T03:36:08.751Z,15.27
2023-02-24T03:38:38.489Z,16.23
2023-02-24T03:41:11.048Z,14.82
2023-02-24T03:43:47.629Z,12.43
2023-02-24T03:46:16.969Z,18.70
2023-02-24T03:48:51.310Z,13.13
2023-02-24T03:51:20.618Z,13.15
2023-02-24T03:54:13.125Z,13.10
2023-02-24T03:56:43.187Z,15.63
2023-02-24T03:59:40.375Z,13.05
2023-02-24T04:02:20.155Z,15.82
2023-02-24T04:04:55.010Z,13.95
2023-02-24T04:07:29.853Z,14.05
2023-02-24T04:10:05.230Z,12.32
2023-02-24T04:12:52.353Z,14.80
2023-02-24T04:15:43.882Z,15.00
2023-02-24T04:18:21.080Z,12.77
2023-02-24T04:20:53.211Z,15.70
2023-02-24T04:23:24.977Z,21.60
2023-02-24T04:25:56.175Z,15.70
2023-02-24T04:28:24.196Z,14.65
2023-02-24T04:30:55.301Z,15.38
2023-02-24T04:33:22.189Z,15.60
2023-02-24T04:35:50.485Z,15.80
2023-02-24T04:38:18.492Z,16.30
2023-02-24T04:40:45.597Z,16.40
2023-02-24T04:43:12.989Z,11.98
2023-02-24T04:45:40.341Z,12.40
2023-02-24T04:48:12.671Z,17.10
2023-02-24T04:50:41.942Z,10.70
2023-02-24T04:53:16.721Z,14.70
2023-02-24T04:55:48.924Z,14.85
2023-02-24T04:58:19.256Z,11.48
2023-02-24T05:00:48.811Z,12.68
2023-02-24T05:03:17.315Z,16.65
2023-02-24T05:05:52.190Z,11.43
2023-02-24T05:08:19.894Z,13.23
2023-02-24T05:10:47.434Z,10.70
2023-02-24T05:13:26.761Z,13.73
2023-02-24T05:16:04.518Z,12.63
2023-02-24T05:18:36.873Z,8.95
2023-02-24T05:21:31.725Z,9.13
2023-02-24T05:23:59.367Z,8.93
2023-02-24T05:26:27.018Z,12.23
2023-02-24T05:28:56.265Z,14.43
2023-02-24T05:31:28.912Z,10.52
2023-02-24T05:36:29.203Z,9.95
2023-02-24T05:39:06.734Z,12.15
2023-02-24T05:41:39.678Z,11.05
2023-02-24T05:44:10.849Z,12.40
2023-02-24T05:46:44.493Z,16.05
2023-02-24T05:49:20.630Z,12.52
2023-02-24T05:51:56.405Z,13.48
2023-02-24T05:54:29.323Z,10.18
2023-02-24T05:57:00.214Z,14.98
2023-02-24T05:59:32.490Z,13.15
2023-02-24T06:02:07.272Z,17.25
2023-02-24T06:04:45.608Z,11.93
2023-02-24T06:07:22.578Z,16.95
2023-02-24T06:09:57.753Z,15.13
2023-02-24T06:12:33.917Z,15.63
2023-02-24T06:15:01.591Z,14.77
2023-02-24T06:17:28.699Z,14.52
2023-02-24T06:19:55.668Z,15.80
2023-02-24T06:22:24.723Z,14.68
2023-02-24T06:24:54.027Z,12.60
2023-02-24T06:27:21.722Z,17.77
2023-02-24T06:29:50.968Z,22.85
2023-02-24T06:32:24.839Z,18.02
2023-02-24T06:34:52.109Z,14.18
2023-02-24T06:37:19.500Z,16.85
2023-02-24T06:39:46.535Z,12.73
2023-02-24T06:42:13.889Z,20.42
2023-02-24T06:44:41.402Z,16.30
2023-02-24T06:47:10.833Z,13.05
2023-02-24T06:49:37.616Z,15.00
2023-02-24T06:52:04.921Z,14.35
2023-02-24T06:54:35.704Z,14.82
2023-02-24T06:57:03.507Z,14.98
2023-02-24T06:59:30.348Z,20.52
2023-02-24T07:01:58.609Z,19.40
2023-02-24T07:04:28.272Z,13.68
2023-02-24T07:07:02.736Z,14.38
2023-02-24T07:09:30.701Z,17.83
2023-02-24T07:11:58.620Z,19.80
2023-02-24T07:14:27.380Z,15.18
2023-02-24T07:16:54.637Z,17.42
2023-02-24T07:19:27.585Z,12.85
2023-02-24T07:22:03.289Z,27.83
2023-02-24T07:24:39.106Z,14.70
2023-02-24T07:27:07.946Z,15.65
2023-02-24T07:29:36.169Z,14.18
2023-02-24T07:32:05.489Z,20.10
2023-02-24T07:34:33.663Z,24.08
2023-02-24T07:37:02.617Z,16.00
2023-02-24T07:39:29.253Z,16.92
2023-02-24T07:41:56.993Z,26.48
2023-02-24T07:44:24.405Z,17.73
2023-02-24T07:46:51.828Z,14.43
2023-02-24T07:49:23.313Z,15.45
2023-02-24T07:51:52.850Z,14.50
2023-02-24T07:54:21.553Z,14.43
2023-02-24T07:56:56.492Z,14.90
2023-02-24T07:59:29.072Z,12.60
2023-02-24T08:01:56.515Z,12.20
2023-02-24T08:04:29.920Z,11.07
2023-02-24T08:06:58.779Z,10.38
2023-02-24T08:09:46.212Z,13.88
2023-02-24T08:12:23.247Z,15.23
2023-02-24T08:14:53.106Z,12.25
2023-02-24T08:17:22.365Z,15.52
2023-02-24T08:20:00.902Z,14.00
2023-02-24T08:22:35.298Z,12.30
2023-02-24T08:25:05.764Z,7.85
2023-02-24T08:27:42.053Z,10.27
2023-02-24T08:30:15.678Z,14.20
2023-02-24T08:32:46.922Z,12.82
2023-02-24T08:35:23.072Z,8.27
2023-02-24T08:37:53.491Z,12.10
2023-02-24T08:40:33.108Z,11.20
2023-02-24T08:43:16.000Z,9.45
2023-02-24T08:45:45.064Z,7.97
2023-02-24T08:48:26.228Z,7.72
2023-02-24T08:50:57.094Z,15.95
2023-02-24T08:53:29.654Z,11.25
2023-02-24T08:55:56.309Z,9.60
2023-02-24T08:58:27.082Z,9.80
2023-02-24T09:00:59.298Z,11.27
2023-02-24T09:03:28.138Z,11.35
2023-02-24T09:06:06.824Z,7.03
2023-02-24T09:08:38.503Z,7.68
2023-02-24T09:11:13.810Z,6.28
2023-02-24T09:13:58.155Z,8.02
2023-02-24T09:16:26.065Z,6.07
2023-02-24T09:19:31.169Z,6.25
2023-02-24T09:22:21.249Z,8.43
2023-02-24T09:24:51.029Z,6.28
2023-02-24T09:27:17.858Z,9.93
2023-02-24T09:29:50.387Z,9.40
2023-02-24T09:32:17.171Z,9.23
2023-02-24T09:34:44.866Z,7.63
2023-02-24T09:37:25.258Z,6.28
2023-02-24T09:40:18.565Z,10.05
2023-02-24T09:42:48.570Z,7.55
2023-02-24T09:45:33.379Z,6.22
2023-02-24T09:48:10.423Z,8.75
2023-02-24T09:51:03.620Z,8.52
2023-02-24T09:53:41.250Z,7.90
2023-02-24T09:56:36.963Z,6.55
2023-02-24T09:59:10.274Z,8.55
2023-02-24T10:01:46.185Z,8.10
2023-02-24T10:04:22.908Z,6.57
2023-02-24T10:06:57.553Z,5.53
2023-02-24T10:09:33.392Z,6.18
2023-02-24T10:12:05.342Z,5.35
2023-02-24T10:14:43.790Z,6.90
2023-02-24T10:20:13.857Z,6.40
2023-02-24T10:22:50.297Z,6.55
2023-02-24T10:25:53.729Z,11.40
2023-02-24T10:28:35.818Z,6.70
2023-02-24T10:31:24.809Z,5.93
2023-02-24T10:34:00.529Z,5.05
2023-02-24T10:36:35.169Z,5.20
2023-02-24T10:39:25.798Z,7.25
2023-02-24T10:41:57.266Z,8.90
2023-02-24T10:44:36.347Z,7.47
2023-02-24T10:47:13.168Z,5.65
2023-02-24T10:49:57.496Z,2.97
2023-02-24T10:52:59.820Z,5.78
2023-02-24T10:55:47.305Z,4.20
2023-02-24T10:58:28.107Z,5.20
2023-02-24T11:01:13.076Z,6.35
2023-02-24T11:04:00.864Z,6.63
2023-02-24T11:06:52.238Z,5.35
2023-02-24T11:09:30.007Z,7.00
2023-02-24T11:12:32.400Z,5.65
2023-02-24T11:15:20.983Z,6.63
2023-02-24T11:17:47.708Z,4.53
2023-02-24T11:20:20.745Z,4.68
2023-02-24T11:22:52.351Z,6.20
2023-02-24T11:25:24.524Z,7.28
2023-02-24T11:27:54.567Z,10.88
2023-02-24T11:30:36.805Z,6.97
2023-02-24T11:33:15.028Z,6.53
2023-02-24T11:36:03.086Z,7.57
2023-02-24T11:38:53.642Z,8.77
2023-02-24T11:41:33.646Z,6.18
2023-02-24T11:44:14.993Z,4.75
2023-02-24T11:46:48.811Z,7.32
2023-02-24T11:49:39.294Z,8.00
2023-02-24T11:52:14.866Z,5.20
2023-02-24T11:54:50.385Z,6.20
2023-02-24T11:57:22.823Z,5.32
2023-02-24T11:59:58.428Z,6.75
2023-02-24T12:02:44.620Z,10.07
2023-02-24T12:05:22.238Z,9.68
2023-02-24T12:07:54.215Z,5.30
2023-02-24T12:10:26.601Z,6.60
2023-02-24T12:13:14.009Z,8.02
2023-02-24T12:15:51.820Z,8.50
2023-02-24T12:18:39.775Z,10.45
2023-02-24T12:21:30.492Z,9.10
2023-02-24T12:23:58.534Z,7.40
2023-02-24T12:26:42.697Z,12.00
2023-02-24T12:29:23.068Z,8.50
2023-02-24T12:32:00.471Z,10.00
2023-02-24T12:34:42.874Z,9.68
2023-02-24T12:37:54.536Z,8.30
2023-02-24T12:40:39.901Z,6.82
2023-02-24T12:43:21.601Z,10.75
2023-02-24T12:46:09.165Z,8.13
2023-02-24T12:48:59.034Z,8.68
2023-02-24T12:51:33.421Z,10.30
2023-02-24T12:54:19.920Z,11.48
2023-02-24T12:56:55.889Z,11.60
2023-02-24T12:59:27.093Z,9.85
2023-02-24T13:02:07.734Z,11.00
2023-02-24T13:04:37.781Z,9.73
2023-02-24T13:07:19.283Z,7.20
2023-02-24T13:10:10.317Z,11.15
2023-02-24T13:12:48.722Z,10.52
2023-02-24T13:15:26.198Z,8.35
2023-02-24T13:17:57.954Z,10.98
2023-02-24T13:20:32.339Z,9.02
2023-02-24T13:23:01.180Z,9.77
2023-02-24T13:25:39.760Z,7.93
2023-02-24T13:28:21.160Z,9.75
2023-02-24T13:30:58.988Z,9.25
2023-02-24T13:33:31.333Z,14.07
2023-02-24T13:36:22.054Z,6.93
2023-02-24T13:39:03.281Z,7.97
2023-02-24T13:41:29.865Z,11.13
2023-02-24T13:44:03.036Z,9.60
2023-02-24T13:47:04.959Z,7.35
2023-02-24T13:49:52.971Z,10.32
2023-02-24T13:52:53.771Z,10.18
2023-02-24T13:56:00.268Z,9.02
2023-02-24T13:58:57.611Z,10.55
2023-02-24T14:01:44.690Z,20.27
2023-02-24T14:04:22.558Z,12.38
2023-02-24T14:06:54.584Z,11.68
2023-02-24T14:09:31.484Z,12.70
2023-02-24T14:12:04.347Z,13.25
2023-02-24T14:14:31.648Z,10.52
2023-02-24T14:16:58.293Z,11.15
2023-02-24T14:19:26.413Z,11.60
2023-02-24T14:21:58.391Z,11.02
2023-02-24T14:24:27.723Z,9.75
2023-02-24T14:26:57.081Z,14.23
2023-02-24T14:29:27.995Z,16.60
2023-02-24T14:31:56.541Z,12.15
2023-02-24T14:34:26.341Z,10.68
2023-02-24T14:37:02.362Z,13.15
2023-02-24T14:39:31.928Z,12.93
2023-02-24T14:42:07.796Z,10.93
2023-02-24T14:44:41.437Z,12.20
2023-02-24T14:47:12.132Z,13.52
2023-02-24T14:49:38.818Z,10.30
2023-02-24T14:52:23.508Z,13.30
2023-02-24T14:55:02.203Z,17.95
2023-02-24T14:57:34.747Z,8.43
2023-02-24T15:00:17.325Z,13.85
2023-02-24T15:02:50.055Z,12.13
2023-02-24T15:07:46.793Z,12.13
2023-02-24T15:10:26.158Z,11.38
2023-02-24T15:13:00.493Z,13.93
2023-02-24T15:15:31.607Z,13.20
2023-02-24T15:18:04.182Z,14.27
2023-02-24T15:20:37.369Z,12.85
2023-02-24T15:23:04.726Z,13.02
2023-02-24T15:25:44.662Z,11.70
2023-02-24T15:28:32.076Z,14.05
2023-02-24T15:31:04.740Z,13.80
2023-02-24T15:33:39.426Z,15.32
2023-02-24T15:36:24.587Z,10.88
2023-02-24T15:38:53.997Z,10.90
2023-02-24T15:41:20.828Z,8.77
2023-02-24T15:43:50.013Z,6.82
2023-02-24T15:46:30.013Z,9.95
2023-02-24T15:49:11.373Z,13.02
2023-02-24T15:51:51.347Z,7.45
2023-02-24T15:54:26.929Z,7.05
2023-02-24T15:56:53.598Z,6.20
2023-02-24T15:59:21.921Z,7.78
2023-02-24T16:01:48.907Z,6.32
2023-02-24T16:04:15.782Z,6.88
2023-02-24T16:06:54.573Z,6.35
2023-02-24T16:09:36.298Z,7.35
2023-02-24T16:12:10.197Z,6.50
2023-02-24T16:14:37.671Z,5.80
2023-02-24T16:17:08.950Z,6.82
2023-02-24T16:19:37.113Z,6.82
2023-02-24T16:22:03.744Z,9.13
2023-02-24T16:24:30.378Z,7.40
2023-02-24T16:26:57.118Z,8.30
2023-02-24T16:29:23.748Z,9.93
2023-02-24T16:31:50.571Z,10.63
2023-02-24T16:34:17.482Z,8.82
2023-02-24T16:36:44.325Z,6.88
2023-02-24T16:39:13.347Z,6.07
2023-02-24T16:41:40.037Z,7.47
2023-02-24T16:44:06.809Z,8.48
2023-02-24T16:46:41.019Z,7.72
2023-02-24T16:49:10.046Z,9.73
2023-02-24T16:51:38.939Z,9.57
2023-02-24T16:54:05.715Z,6.80
2023-02-24T16:56:32.710Z,7.50
2023-02-24T16:58:59.455Z,7.20
2023-02-24T17:01:26.231Z,9.60
2023-02-24T17:03:54.039Z,8.30
2023-02-24T17:06:22.541Z,8.93
2023-02-24T17:08:50.555Z,9.23
2023-02-24T17:11:19.554Z,6.85
2023-02-24T17:13:46.171Z,9.15
2023-02-24T17:16:12.889Z,8.80
2023-02-24T17:18:39.525Z,7.35
2023-02-24T17:21:06.193Z,9.32
2023-02-24T17:23:32.817Z,8.93
2023-02-24T17:26:01.660Z,9.30
2023-02-24T17:28:28.516Z,11.73
2023-02-24T17:30:55.273Z,12.40
2023-02-24T17:33:22.132Z,10.68
2023-02-24T17:35:49.004Z,9.38
2023-02-24T17:38:21.392Z,8.88
2023-02-24T17:40:48.354Z,10.73
2023-02-24T17:43:15.194Z,10.55
2023-02-24T17:45:44.834Z,13.77
2023-02-24T17:48:13.128Z,11.13
2023-02-24T17:50:48.412Z,10.40
2023-02-24T17:53:15.756Z,12.50
2023-02-24T17:56:01.109Z,11.68
2023-02-24T17:58:29.153Z,12.80
2023-02-24T18:00:56.284Z,10.65
2023-02-24T18:03:23.362Z,11.30
2023-02-24T18:05:58.694Z,10.95
2023-02-24T18:08:25.356Z,9.52
2023-02-24T18:10:51.976Z,11.40
2023-02-24T18:13:18.786Z,10.85
2023-02-24T18:15:46.113Z,13.00
2023-02-24T18:18:12.858Z,10.88
2023-02-24T18:20:43.321Z,12.77
2023-02-24T18:23:11.148Z,11.65
2023-02-24T18:25:38.263Z,10.90
2023-02-24T18:28:05.506Z,11.38
2023-02-24T18:30:32.584Z,11.45
2023-02-24T18:32:59.646Z,10.85
2023-02-24T18:35:27.184Z,12.43
2023-02-24T18:37:56.529Z,11.82
2023-02-24T18:40:24.717Z,13.30
2023-02-24T18:42:51.745Z,16.65
2023-02-24T18:45:19.319Z,10.65
2023-02-24T18:47:46.799Z,12.38
2023-02-24T18:50:14.902Z,14.07
2023-02-24T18:52:41.604Z,11.10
2023-02-24T18:55:09.896Z,13.23
2023-02-24T18:57:44.391Z,11.63
2023-02-24T19:00:14.117Z,12.95
2023-02-24T19:02:41.314Z,11.55
2023-02-24T19:05:08.712Z,11.13
2023-02-24T19:07:35.316Z,11.25
2023-02-24T19:10:02.707Z,9.93
2023-02-24T19:12:29.637Z,10.35
2023-02-24T19:14:56.280Z,8.70
2023-02-24T19:17:22.904Z,10.25
2023-02-24T19:19:49.585Z,10.52
2023-02-24T19:22:19.726Z,11.57
2023-02-24T19:24:46.791Z,7.65
2023-02-24T19:27:14.324Z,9.10
2023-02-24T19:29:42.522Z,7.43
2023-02-24T19:32:12.894Z,7.75
2023-02-24T19:34:39.713Z,8.20
2023-02-24T19:37:06.375Z,7.78
2023-02-24T19:39:33.050Z,7.95
2023-02-24T19:41:59.681Z,7.93
2023-02-24T19:44:26.394Z,8.45
2023-02-24T19:46:53.098Z,8.00
2023-02-24T19:49:19.698Z,8.57
2023-02-24T19:51:48.240Z,9.57
2023-02-24T19:54:16.216Z,7.45
2023-02-24T19:56:43.997Z,7.90
2023-02-24T19:59:11.232Z,7.70
2023-02-24T20:01:37.999Z,7.40
2023-02-24T20:04:05.792Z,7.60
2023-02-24T20:06:40.738Z,8.73
2023-02-24T20:09:15.319Z,5.88
2023-02-24T20:11:44.186Z,8.50
2023-02-24T20:14:11.896Z,8.45
2023-02-24T20:16:42.232Z,7.97
2023-02-24T20:19:11.381Z,6.57
2023-02-24T20:21:39.004Z,6.20
2023-02-24T20:24:08.675Z,5.15
2023-02-24T20:26:37.442Z,7.40
2023-02-24T20:29:06.467Z,5.80
2023-02-24T20:31:33.230Z,5.25
2023-02-24T20:34:00.286Z,3.95
2023-02-24T20:36:28.715Z,5.57
2023-02-24T20:38:57.737Z,5.70
2023-02-24T20:41:24.780Z,6.18
2023-02-24T20:43:51.423Z,11.23
2023-02-24T20:46:28.149Z,7.25
2023-02-24T20:49:06.606Z,12.32
2023-02-24T20:51:37.064Z,7.07
2023-02-24T20:54:05.845Z,5.05
2023-02-24T20:56:35.662Z,7.15
2023-02-24T20:59:07.680Z,7.50
2023-02-24T21:01:35.627Z,9.27
2023-02-24T21:04:02.731Z,7.68
2023-02-24T21:06:29.812Z,5.80
2023-02-24T21:08:57.576Z,6.90
2023-02-24T21:11:24.749Z,9.95
2023-02-24T21:13:52.622Z,9.75
2023-02-24T21:16:21.203Z,9.60
2023-02-24T21:18:49.518Z,7.63
2023-02-24T21:21:16.937Z,9.00
2023-02-24T21:23:43.859Z,10.88
2023-02-24T21:26:11.207Z,10.73
2023-02-24T21:28:38.674Z,16.27
2023-02-24T21:31:14.117Z,7.60
2023-02-24T21:33:40.832Z,11.00
2023-02-24T21:36:10.921Z,11.30
2023-02-24T21:38:37.870Z,15.30
2023-02-24T21:41:07.155Z,11.48
2023-02-24T21:43:34.465Z,8.65
2023-02-24T21:46:06.015Z,12.73
2023-02-24T21:48:33.707Z,14.90
2023-02-24T21:51:03.684Z,13.32
2023-02-24T21:53:35.882Z,14.90
2023-02-24T21:56:18.409Z,9.05
2023-02-24T21:58:47.847Z,11.32
2023-02-24T22:01:17.968Z,9.32
2023-02-24T22:03:44.834Z,10.68
2023-02-24T22:06:13.748Z,10.13
2023-02-24T22:08:43.556Z,7.38
2023-02-24T22:11:15.668Z,14.77
2023-02-24T22:13:43.958Z,6.65
2023-02-24T22:16:18.130Z,10.32
2023-02-24T22:18:45.373Z,11.35
2023-02-24T22:21:23.658Z,10.20
2023-02-24T22:24:03.239Z,8.20
2023-02-24T22:26:31.890Z,11.77
2023-02-24T22:28:59.207Z,8.95
2023-02-24T22:31:29.543Z,12.50
2023-02-24T22:33:56.725Z,8.80
2023-02-24T22:36:33.120Z,8.23
2023-02-24T22:39:01.161Z,8.98
2023-02-24T22:41:31.299Z,11.23
2023-02-24T22:43:58.834Z,10.68
2023-02-24T22:46:32.591Z,10.85
2023-02-24T22:49:00.039Z,7.03
2023-02-24T22:51:27.146Z,9.63
2023-02-24T22:53:54.987Z,16.55
2023-02-24T22:56:27.265Z,12.30
2023-02-24T22:58:54.583Z,7.07
2023-02-24T23:01:30.512Z,10.88
2023-02-24T23:04:00.798Z,8.55
2023-02-24T23:06:28.178Z,15.13
2023-02-24T23:08:56.636Z,11.80
2023-02-24T23:11:27.640Z,12.30
2023-02-24T23:13:55.661Z,18.25
2023-02-24T23:16:29.410Z,13.98
2023-02-24T23:18:58.295Z,12.93
2023-02-24T23:21:31.082Z,9.70
2023-02-24T23:26:42.377Z,7.47
2023-02-24T23:29:14.765Z,11.15
2023-02-24T23:31:42.170Z,9.48
2023-02-24T23:34:09.813Z,11.05
2023-02-24T23:36:38.957Z,7.90
2023-02-24T23:39:07.092Z,7.05
2023-02-24T23:41:34.868Z,7.80
2023-02-24T23:44:01.685Z,10.30
2023-02-24T23:46:28.680Z,11.15
2023-02-24T23:48:57.275Z,10.68
2023-02-24T23:51:24.222Z,9.73
2023-02-24T23:53:51.117Z,14.40
2023-02-24T23:56:24.276Z,9.75
2023-02-24T23:58:57.668Z,12.13
